<?xml version="1.0" encoding="UTF-8" standalone="no" ?>
<gpx xmlns="http://www.topografix.com/GPX/1/1" xmlns:xsi="http://www.w3.org/2001/XMLSchema-instance" xsi:schemaLocation="http://www.topografix.com/GPX/1/1 http://www.topografix.com/GPX/1/1/gpx.xsd" version="1.1" creator="VisuGPX - https://www.visugpx.com">
  <metadata>
    <name>OMS CHENOVE Marche du vendredi 30 mars 2012</name>
    <desc><![CDATA[De Couchey à Marsannay]]></desc>
  </metadata>
  <trk>
    <name><![CDATA[OMS CHENOVE Marche du vendredi 30 mars 2012_1]]></name>
    <trkseg>
      <trkpt lat="47.25888" lon="4.98372">
        <ele>242.5</ele>
        <time>2012-03-30T08:25:03Z</time>
      </trkpt>
      <trkpt lat="47.25888" lon="4.98372">
        <ele>242.5</ele>
        <time>2012-03-30T08:25:14Z</time>
      </trkpt>
      <trkpt lat="47.25888" lon="4.98373">
        <ele>240.277</ele>
        <time>2012-03-30T08:25:25Z</time>
      </trkpt>
      <trkpt lat="47.25888" lon="4.98372">
        <ele>241.435</ele>
        <time>2012-03-30T08:25:36Z</time>
      </trkpt>
      <trkpt lat="47.25888" lon="4.9837">
        <ele>242.11</ele>
        <time>2012-03-30T08:25:47Z</time>
      </trkpt>
      <trkpt lat="47.2589" lon="4.98368">
        <ele>244.134</ele>
        <time>2012-03-30T08:25:58Z</time>
      </trkpt>
      <trkpt lat="47.25892" lon="4.98365">
        <ele>245.69</ele>
        <time>2012-03-30T08:26:09Z</time>
      </trkpt>
      <trkpt lat="47.2589" lon="4.98362">
        <ele>250.911</ele>
        <time>2012-03-30T08:26:20Z</time>
      </trkpt>
      <trkpt lat="47.25892" lon="4.98363">
        <ele>250.88</ele>
        <time>2012-03-30T08:26:31Z</time>
      </trkpt>
      <trkpt lat="47.25888" lon="4.98362">
        <ele>252.262</ele>
        <time>2012-03-30T08:26:42Z</time>
      </trkpt>
      <trkpt lat="47.2589" lon="4.98363">
        <ele>249.366</ele>
        <time>2012-03-30T08:26:53Z</time>
      </trkpt>
      <trkpt lat="47.25892" lon="4.98362">
        <ele>247.554</ele>
        <time>2012-03-30T08:27:04Z</time>
      </trkpt>
      <trkpt lat="47.25892" lon="4.98358">
        <ele>249.493</ele>
        <time>2012-03-30T08:27:15Z</time>
      </trkpt>
      <trkpt lat="47.259" lon="4.98352">
        <ele>245.588</ele>
        <time>2012-03-30T08:27:26Z</time>
      </trkpt>
      <trkpt lat="47.2591" lon="4.9834">
        <ele>235.053</ele>
        <time>2012-03-30T08:27:37Z</time>
      </trkpt>
      <trkpt lat="47.25918" lon="4.98327">
        <ele>238.66</ele>
        <time>2012-03-30T08:27:48Z</time>
      </trkpt>
      <trkpt lat="47.25925" lon="4.98312">
        <ele>242.74</ele>
        <time>2012-03-30T08:27:59Z</time>
      </trkpt>
      <trkpt lat="47.25933" lon="4.98295">
        <ele>247.099</ele>
        <time>2012-03-30T08:28:10Z</time>
      </trkpt>
      <trkpt lat="47.25942" lon="4.98278">
        <ele>253.02</ele>
        <time>2012-03-30T08:28:21Z</time>
      </trkpt>
      <trkpt lat="47.2595" lon="4.98252">
        <ele>267.17</ele>
        <time>2012-03-30T08:28:32Z</time>
      </trkpt>
      <trkpt lat="47.25957" lon="4.9824">
        <ele>267.929</ele>
        <time>2012-03-30T08:28:43Z</time>
      </trkpt>
      <trkpt lat="47.25962" lon="4.98227">
        <ele>269.308</ele>
        <time>2012-03-30T08:28:54Z</time>
      </trkpt>
      <trkpt lat="47.25968" lon="4.98207">
        <ele>267.327</ele>
        <time>2012-03-30T08:29:05Z</time>
      </trkpt>
      <trkpt lat="47.25977" lon="4.98188">
        <ele>265.147</ele>
        <time>2012-03-30T08:29:16Z</time>
      </trkpt>
      <trkpt lat="47.25987" lon="4.9818">
        <ele>263.708</ele>
        <time>2012-03-30T08:29:27Z</time>
      </trkpt>
      <trkpt lat="47.25992" lon="4.98168">
        <ele>266.276</ele>
        <time>2012-03-30T08:29:38Z</time>
      </trkpt>
      <trkpt lat="47.26" lon="4.98155">
        <ele>264.673</ele>
        <time>2012-03-30T08:29:49Z</time>
      </trkpt>
      <trkpt lat="47.26005" lon="4.9813">
        <ele>268.858</ele>
        <time>2012-03-30T08:30:00Z</time>
      </trkpt>
      <trkpt lat="47.26005" lon="4.9812">
        <ele>270.433</ele>
        <time>2012-03-30T08:30:11Z</time>
      </trkpt>
      <trkpt lat="47.26007" lon="4.981">
        <ele>271.116</ele>
        <time>2012-03-30T08:30:22Z</time>
      </trkpt>
      <trkpt lat="47.26008" lon="4.98085">
        <ele>275.89</ele>
        <time>2012-03-30T08:30:33Z</time>
      </trkpt>
      <trkpt lat="47.2601" lon="4.9807">
        <ele>274.485</ele>
        <time>2012-03-30T08:30:44Z</time>
      </trkpt>
      <trkpt lat="47.26007" lon="4.98058">
        <ele>269.351</ele>
        <time>2012-03-30T08:30:55Z</time>
      </trkpt>
      <trkpt lat="47.2601" lon="4.98033">
        <ele>272.525</ele>
        <time>2012-03-30T08:31:06Z</time>
      </trkpt>
      <trkpt lat="47.26012" lon="4.98015">
        <ele>271.404</ele>
        <time>2012-03-30T08:31:17Z</time>
      </trkpt>
      <trkpt lat="47.26012" lon="4.9801">
        <ele>271.398</ele>
        <time>2012-03-30T08:31:28Z</time>
      </trkpt>
      <trkpt lat="47.26015" lon="4.98002">
        <ele>272.569</ele>
        <time>2012-03-30T08:31:39Z</time>
      </trkpt>
      <trkpt lat="47.26018" lon="4.97985">
        <ele>278.909</ele>
        <time>2012-03-30T08:31:50Z</time>
      </trkpt>
      <trkpt lat="47.2602" lon="4.97983">
        <ele>278.479</ele>
        <time>2012-03-30T08:32:01Z</time>
      </trkpt>
      <trkpt lat="47.2603" lon="4.97947">
        <ele>282.274</ele>
        <time>2012-03-30T08:32:12Z</time>
      </trkpt>
      <trkpt lat="47.26042" lon="4.97908">
        <ele>282.425</ele>
        <time>2012-03-30T08:32:23Z</time>
      </trkpt>
      <trkpt lat="47.2605" lon="4.979">
        <ele>278.645</ele>
        <time>2012-03-30T08:32:34Z</time>
      </trkpt>
      <trkpt lat="47.26062" lon="4.97878">
        <ele>278.637</ele>
        <time>2012-03-30T08:32:45Z</time>
      </trkpt>
      <trkpt lat="47.26078" lon="4.97855">
        <ele>283.298</ele>
        <time>2012-03-30T08:32:56Z</time>
      </trkpt>
      <trkpt lat="47.26092" lon="4.97833">
        <ele>296.992</ele>
        <time>2012-03-30T08:33:07Z</time>
      </trkpt>
      <trkpt lat="47.26105" lon="4.97835">
        <ele>295.47</ele>
        <time>2012-03-30T08:33:18Z</time>
      </trkpt>
      <trkpt lat="47.26123" lon="4.97827">
        <ele>286.591</ele>
        <time>2012-03-30T08:33:29Z</time>
      </trkpt>
      <trkpt lat="47.26132" lon="4.97817">
        <ele>279.33</ele>
        <time>2012-03-30T08:33:40Z</time>
      </trkpt>
      <trkpt lat="47.26137" lon="4.97807">
        <ele>280.849</ele>
        <time>2012-03-30T08:33:51Z</time>
      </trkpt>
      <trkpt lat="47.26143" lon="4.97778">
        <ele>288.886</ele>
        <time>2012-03-30T08:34:02Z</time>
      </trkpt>
      <trkpt lat="47.26143" lon="4.97752">
        <ele>292.716</ele>
        <time>2012-03-30T08:34:13Z</time>
      </trkpt>
      <trkpt lat="47.26145" lon="4.9773">
        <ele>294.179</ele>
        <time>2012-03-30T08:34:24Z</time>
      </trkpt>
      <trkpt lat="47.26148" lon="4.97703">
        <ele>294.096</ele>
        <time>2012-03-30T08:34:35Z</time>
      </trkpt>
      <trkpt lat="47.26155" lon="4.97683">
        <ele>285.691</ele>
        <time>2012-03-30T08:34:46Z</time>
      </trkpt>
      <trkpt lat="47.26158" lon="4.97663">
        <ele>283.838</ele>
        <time>2012-03-30T08:34:57Z</time>
      </trkpt>
      <trkpt lat="47.26158" lon="4.97648">
        <ele>281.169</ele>
        <time>2012-03-30T08:35:08Z</time>
      </trkpt>
      <trkpt lat="47.2616" lon="4.97627">
        <ele>277.915</ele>
        <time>2012-03-30T08:35:19Z</time>
      </trkpt>
      <trkpt lat="47.26163" lon="4.97592">
        <ele>275.729</ele>
        <time>2012-03-30T08:35:30Z</time>
      </trkpt>
      <trkpt lat="47.26163" lon="4.97573">
        <ele>276.023</ele>
        <time>2012-03-30T08:35:41Z</time>
      </trkpt>
      <trkpt lat="47.26167" lon="4.97557">
        <ele>272.38</ele>
        <time>2012-03-30T08:35:52Z</time>
      </trkpt>
      <trkpt lat="47.26167" lon="4.97525">
        <ele>282.613</ele>
        <time>2012-03-30T08:36:03Z</time>
      </trkpt>
      <trkpt lat="47.26167" lon="4.97513">
        <ele>278.744</ele>
        <time>2012-03-30T08:36:14Z</time>
      </trkpt>
      <trkpt lat="47.26168" lon="4.9748">
        <ele>275.306</ele>
        <time>2012-03-30T08:36:25Z</time>
      </trkpt>
      <trkpt lat="47.26168" lon="4.97453">
        <ele>280.754</ele>
        <time>2012-03-30T08:36:36Z</time>
      </trkpt>
      <trkpt lat="47.26172" lon="4.97432">
        <ele>278.535</ele>
        <time>2012-03-30T08:36:47Z</time>
      </trkpt>
      <trkpt lat="47.26175" lon="4.97403">
        <ele>277.617</ele>
        <time>2012-03-30T08:36:58Z</time>
      </trkpt>
      <trkpt lat="47.2618" lon="4.9739">
        <ele>275.925</ele>
        <time>2012-03-30T08:37:09Z</time>
      </trkpt>
      <trkpt lat="47.2619" lon="4.97375">
        <ele>282.213</ele>
        <time>2012-03-30T08:37:20Z</time>
      </trkpt>
      <trkpt lat="47.26207" lon="4.97352">
        <ele>277.548</ele>
        <time>2012-03-30T08:37:31Z</time>
      </trkpt>
      <trkpt lat="47.2621" lon="4.97337">
        <ele>274.806</ele>
        <time>2012-03-30T08:37:42Z</time>
      </trkpt>
      <trkpt lat="47.26203" lon="4.97323">
        <ele>279.726</ele>
        <time>2012-03-30T08:37:53Z</time>
      </trkpt>
      <trkpt lat="47.26202" lon="4.97305">
        <ele>281.211</ele>
        <time>2012-03-30T08:38:04Z</time>
      </trkpt>
      <trkpt lat="47.262" lon="4.97292">
        <ele>284.288</ele>
        <time>2012-03-30T08:38:15Z</time>
      </trkpt>
      <trkpt lat="47.262" lon="4.9727">
        <ele>289.318</ele>
        <time>2012-03-30T08:38:26Z</time>
      </trkpt>
      <trkpt lat="47.26197" lon="4.97257">
        <ele>291.625</ele>
        <time>2012-03-30T08:38:37Z</time>
      </trkpt>
      <trkpt lat="47.26195" lon="4.9721">
        <ele>301.182</ele>
        <time>2012-03-30T08:38:48Z</time>
      </trkpt>
      <trkpt lat="47.26188" lon="4.97183">
        <ele>299.043</ele>
        <time>2012-03-30T08:38:59Z</time>
      </trkpt>
      <trkpt lat="47.26188" lon="4.97158">
        <ele>303.343</ele>
        <time>2012-03-30T08:39:10Z</time>
      </trkpt>
      <trkpt lat="47.26188" lon="4.97142">
        <ele>299.523</ele>
        <time>2012-03-30T08:39:21Z</time>
      </trkpt>
      <trkpt lat="47.26188" lon="4.97122">
        <ele>298.894</ele>
        <time>2012-03-30T08:39:32Z</time>
      </trkpt>
      <trkpt lat="47.26188" lon="4.97105">
        <ele>306.565</ele>
        <time>2012-03-30T08:39:43Z</time>
      </trkpt>
      <trkpt lat="47.26188" lon="4.97088">
        <ele>311.277</ele>
        <time>2012-03-30T08:39:54Z</time>
      </trkpt>
      <trkpt lat="47.26187" lon="4.97062">
        <ele>313.637</ele>
        <time>2012-03-30T08:40:05Z</time>
      </trkpt>
      <trkpt lat="47.26187" lon="4.97055">
        <ele>313.519</ele>
        <time>2012-03-30T08:40:16Z</time>
      </trkpt>
      <trkpt lat="47.2619" lon="4.97027">
        <ele>306.967</ele>
        <time>2012-03-30T08:40:27Z</time>
      </trkpt>
      <trkpt lat="47.26193" lon="4.97002">
        <ele>306.895</ele>
        <time>2012-03-30T08:40:38Z</time>
      </trkpt>
      <trkpt lat="47.26195" lon="4.96982">
        <ele>307.748</ele>
        <time>2012-03-30T08:40:49Z</time>
      </trkpt>
      <trkpt lat="47.26197" lon="4.9696">
        <ele>303.557</ele>
        <time>2012-03-30T08:41:00Z</time>
      </trkpt>
      <trkpt lat="47.26198" lon="4.9695">
        <ele>304.73</ele>
        <time>2012-03-30T08:41:11Z</time>
      </trkpt>
      <trkpt lat="47.26202" lon="4.96922">
        <ele>308.842</ele>
        <time>2012-03-30T08:41:22Z</time>
      </trkpt>
      <trkpt lat="47.26205" lon="4.96903">
        <ele>309.905</ele>
        <time>2012-03-30T08:41:33Z</time>
      </trkpt>
      <trkpt lat="47.26205" lon="4.96895">
        <ele>309.796</ele>
        <time>2012-03-30T08:41:44Z</time>
      </trkpt>
      <trkpt lat="47.26203" lon="4.96887">
        <ele>309.982</ele>
        <time>2012-03-30T08:41:55Z</time>
      </trkpt>
      <trkpt lat="47.26203" lon="4.96878">
        <ele>310.3</ele>
        <time>2012-03-30T08:42:06Z</time>
      </trkpt>
      <trkpt lat="47.26203" lon="4.96858">
        <ele>313.012</ele>
        <time>2012-03-30T08:42:17Z</time>
      </trkpt>
      <trkpt lat="47.26203" lon="4.96852">
        <ele>314.727</ele>
        <time>2012-03-30T08:42:28Z</time>
      </trkpt>
      <trkpt lat="47.26207" lon="4.96823">
        <ele>322.27</ele>
        <time>2012-03-30T08:42:39Z</time>
      </trkpt>
      <trkpt lat="47.26208" lon="4.96808">
        <ele>324.824</ele>
        <time>2012-03-30T08:42:50Z</time>
      </trkpt>
      <trkpt lat="47.26212" lon="4.9678">
        <ele>327.117</ele>
        <time>2012-03-30T08:43:01Z</time>
      </trkpt>
      <trkpt lat="47.26212" lon="4.96772">
        <ele>328.208</ele>
        <time>2012-03-30T08:43:12Z</time>
      </trkpt>
      <trkpt lat="47.26218" lon="4.96737">
        <ele>333.62</ele>
        <time>2012-03-30T08:43:23Z</time>
      </trkpt>
      <trkpt lat="47.26223" lon="4.96703">
        <ele>337.287</ele>
        <time>2012-03-30T08:43:34Z</time>
      </trkpt>
      <trkpt lat="47.26225" lon="4.96685">
        <ele>343.874</ele>
        <time>2012-03-30T08:43:45Z</time>
      </trkpt>
      <trkpt lat="47.26227" lon="4.96667">
        <ele>348.641</ele>
        <time>2012-03-30T08:43:56Z</time>
      </trkpt>
      <trkpt lat="47.26228" lon="4.96653">
        <ele>346.837</ele>
        <time>2012-03-30T08:44:07Z</time>
      </trkpt>
      <trkpt lat="47.26232" lon="4.96642">
        <ele>345.143</ele>
        <time>2012-03-30T08:44:18Z</time>
      </trkpt>
      <trkpt lat="47.26233" lon="4.96633">
        <ele>342.348</ele>
        <time>2012-03-30T08:44:29Z</time>
      </trkpt>
      <trkpt lat="47.26242" lon="4.96605">
        <ele>342.741</ele>
        <time>2012-03-30T08:44:40Z</time>
      </trkpt>
      <trkpt lat="47.26253" lon="4.96567">
        <ele>347.119</ele>
        <time>2012-03-30T08:44:51Z</time>
      </trkpt>
      <trkpt lat="47.26265" lon="4.96547">
        <ele>348.755</ele>
        <time>2012-03-30T08:45:02Z</time>
      </trkpt>
      <trkpt lat="47.26273" lon="4.96533">
        <ele>348.323</ele>
        <time>2012-03-30T08:45:13Z</time>
      </trkpt>
      <trkpt lat="47.26282" lon="4.96525">
        <ele>344.492</ele>
        <time>2012-03-30T08:45:24Z</time>
      </trkpt>
      <trkpt lat="47.26292" lon="4.96507">
        <ele>350.981</ele>
        <time>2012-03-30T08:45:35Z</time>
      </trkpt>
      <trkpt lat="47.26295" lon="4.96488">
        <ele>353.252</ele>
        <time>2012-03-30T08:45:46Z</time>
      </trkpt>
      <trkpt lat="47.263" lon="4.96478">
        <ele>352.439</ele>
        <time>2012-03-30T08:45:57Z</time>
      </trkpt>
      <trkpt lat="47.2631" lon="4.9646">
        <ele>353.587</ele>
        <time>2012-03-30T08:46:08Z</time>
      </trkpt>
      <trkpt lat="47.2632" lon="4.96445">
        <ele>354.174</ele>
        <time>2012-03-30T08:46:19Z</time>
      </trkpt>
      <trkpt lat="47.26327" lon="4.96438">
        <ele>353.557</ele>
        <time>2012-03-30T08:46:30Z</time>
      </trkpt>
      <trkpt lat="47.26332" lon="4.96425">
        <ele>359.781</ele>
        <time>2012-03-30T08:46:41Z</time>
      </trkpt>
      <trkpt lat="47.26338" lon="4.96412">
        <ele>363.752</ele>
        <time>2012-03-30T08:46:52Z</time>
      </trkpt>
      <trkpt lat="47.26348" lon="4.96395">
        <ele>363.041</ele>
        <time>2012-03-30T08:47:03Z</time>
      </trkpt>
      <trkpt lat="47.2635" lon="4.9639">
        <ele>362.846</ele>
        <time>2012-03-30T08:47:14Z</time>
      </trkpt>
      <trkpt lat="47.26355" lon="4.96383">
        <ele>362.574</ele>
        <time>2012-03-30T08:47:25Z</time>
      </trkpt>
      <trkpt lat="47.26357" lon="4.9638">
        <ele>360.871</ele>
        <time>2012-03-30T08:47:36Z</time>
      </trkpt>
      <trkpt lat="47.26358" lon="4.96378">
        <ele>361.342</ele>
        <time>2012-03-30T08:47:47Z</time>
      </trkpt>
      <trkpt lat="47.26365" lon="4.96365">
        <ele>357.992</ele>
        <time>2012-03-30T08:47:58Z</time>
      </trkpt>
      <trkpt lat="47.26368" lon="4.96347">
        <ele>360.312</ele>
        <time>2012-03-30T08:48:09Z</time>
      </trkpt>
      <trkpt lat="47.26375" lon="4.96312">
        <ele>375.812</ele>
        <time>2012-03-30T08:48:20Z</time>
      </trkpt>
      <trkpt lat="47.26385" lon="4.96275">
        <ele>388.717</ele>
        <time>2012-03-30T08:48:31Z</time>
      </trkpt>
      <trkpt lat="47.26393" lon="4.96258">
        <ele>389.909</ele>
        <time>2012-03-30T08:48:42Z</time>
      </trkpt>
      <trkpt lat="47.264" lon="4.96255">
        <ele>376.381</ele>
        <time>2012-03-30T08:48:53Z</time>
      </trkpt>
      <trkpt lat="47.26408" lon="4.96248">
        <ele>372.01</ele>
        <time>2012-03-30T08:49:04Z</time>
      </trkpt>
      <trkpt lat="47.26413" lon="4.9624">
        <ele>375.345</ele>
        <time>2012-03-30T08:49:15Z</time>
      </trkpt>
      <trkpt lat="47.26418" lon="4.9622">
        <ele>384.251</ele>
        <time>2012-03-30T08:49:26Z</time>
      </trkpt>
      <trkpt lat="47.26422" lon="4.96208">
        <ele>388.548</ele>
        <time>2012-03-30T08:49:37Z</time>
      </trkpt>
      <trkpt lat="47.26423" lon="4.96188">
        <ele>395.766</ele>
        <time>2012-03-30T08:49:48Z</time>
      </trkpt>
      <trkpt lat="47.26427" lon="4.96165">
        <ele>400.303</ele>
        <time>2012-03-30T08:49:59Z</time>
      </trkpt>
      <trkpt lat="47.26427" lon="4.9615">
        <ele>399.476</ele>
        <time>2012-03-30T08:50:10Z</time>
      </trkpt>
      <trkpt lat="47.26428" lon="4.96138">
        <ele>403.888</ele>
        <time>2012-03-30T08:50:21Z</time>
      </trkpt>
      <trkpt lat="47.26428" lon="4.9612">
        <ele>410.687</ele>
        <time>2012-03-30T08:50:32Z</time>
      </trkpt>
      <trkpt lat="47.26427" lon="4.96103">
        <ele>414.678</ele>
        <time>2012-03-30T08:50:43Z</time>
      </trkpt>
      <trkpt lat="47.26423" lon="4.96095">
        <ele>418.075</ele>
        <time>2012-03-30T08:50:54Z</time>
      </trkpt>
      <trkpt lat="47.26425" lon="4.9608">
        <ele>422.817</ele>
        <time>2012-03-30T08:51:05Z</time>
      </trkpt>
      <trkpt lat="47.26423" lon="4.96065">
        <ele>429.31</ele>
        <time>2012-03-30T08:51:16Z</time>
      </trkpt>
      <trkpt lat="47.2642" lon="4.96052">
        <ele>434.639</ele>
        <time>2012-03-30T08:51:27Z</time>
      </trkpt>
      <trkpt lat="47.26422" lon="4.96038">
        <ele>434.516</ele>
        <time>2012-03-30T08:51:38Z</time>
      </trkpt>
      <trkpt lat="47.26425" lon="4.96022">
        <ele>435.47</ele>
        <time>2012-03-30T08:51:49Z</time>
      </trkpt>
      <trkpt lat="47.26425" lon="4.96022">
        <ele>435.47</ele>
        <time>2012-03-30T08:52:00Z</time>
      </trkpt>
      <trkpt lat="47.26425" lon="4.96022">
        <ele>435.47</ele>
        <time>2012-03-30T08:52:11Z</time>
      </trkpt>
      <trkpt lat="47.26425" lon="4.96022">
        <ele>435.47</ele>
        <time>2012-03-30T08:52:22Z</time>
      </trkpt>
      <trkpt lat="47.26425" lon="4.96022">
        <ele>435.47</ele>
        <time>2012-03-30T08:52:33Z</time>
      </trkpt>
      <trkpt lat="47.26425" lon="4.96022">
        <ele>435.47</ele>
        <time>2012-03-30T08:52:44Z</time>
      </trkpt>
      <trkpt lat="47.26425" lon="4.96022">
        <ele>439.041</ele>
        <time>2012-03-30T08:52:55Z</time>
      </trkpt>
      <trkpt lat="47.26425" lon="4.96022">
        <ele>440.188</ele>
        <time>2012-03-30T08:53:06Z</time>
      </trkpt>
      <trkpt lat="47.26425" lon="4.96022">
        <ele>440.188</ele>
        <time>2012-03-30T08:53:17Z</time>
      </trkpt>
      <trkpt lat="47.26425" lon="4.96022">
        <ele>440.188</ele>
        <time>2012-03-30T08:53:28Z</time>
      </trkpt>
      <trkpt lat="47.26425" lon="4.96022">
        <ele>440.188</ele>
        <time>2012-03-30T08:53:39Z</time>
      </trkpt>
      <trkpt lat="47.26425" lon="4.96022">
        <ele>440.188</ele>
        <time>2012-03-30T08:53:50Z</time>
      </trkpt>
      <trkpt lat="47.26425" lon="4.9602">
        <ele>439.434</ele>
        <time>2012-03-30T08:54:01Z</time>
      </trkpt>
      <trkpt lat="47.26425" lon="4.9602">
        <ele>441.604</ele>
        <time>2012-03-30T08:54:12Z</time>
      </trkpt>
      <trkpt lat="47.26423" lon="4.96018">
        <ele>440.646</ele>
        <time>2012-03-30T08:54:23Z</time>
      </trkpt>
      <trkpt lat="47.26418" lon="4.96017">
        <ele>442.856</ele>
        <time>2012-03-30T08:54:34Z</time>
      </trkpt>
      <trkpt lat="47.26412" lon="4.96015">
        <ele>441.26</ele>
        <time>2012-03-30T08:54:45Z</time>
      </trkpt>
      <trkpt lat="47.26388" lon="4.96033">
        <ele>446.13</ele>
        <time>2012-03-30T08:54:56Z</time>
      </trkpt>
      <trkpt lat="47.26378" lon="4.96053">
        <ele>429.443</ele>
        <time>2012-03-30T08:55:07Z</time>
      </trkpt>
      <trkpt lat="47.26362" lon="4.96047">
        <ele>445.775</ele>
        <time>2012-03-30T08:55:18Z</time>
      </trkpt>
      <trkpt lat="47.26347" lon="4.96037">
        <ele>449.61</ele>
        <time>2012-03-30T08:55:29Z</time>
      </trkpt>
      <trkpt lat="47.26338" lon="4.96033">
        <ele>447.127</ele>
        <time>2012-03-30T08:55:40Z</time>
      </trkpt>
      <trkpt lat="47.26325" lon="4.96022">
        <ele>454.301</ele>
        <time>2012-03-30T08:55:51Z</time>
      </trkpt>
      <trkpt lat="47.26308" lon="4.96013">
        <ele>448.006</ele>
        <time>2012-03-30T08:56:02Z</time>
      </trkpt>
      <trkpt lat="47.26298" lon="4.96013">
        <ele>449.848</ele>
        <time>2012-03-30T08:56:13Z</time>
      </trkpt>
      <trkpt lat="47.2629" lon="4.96007">
        <ele>448.241</ele>
        <time>2012-03-30T08:56:24Z</time>
      </trkpt>
      <trkpt lat="47.26273" lon="4.95997">
        <ele>453.925</ele>
        <time>2012-03-30T08:56:35Z</time>
      </trkpt>
      <trkpt lat="47.26268" lon="4.9599">
        <ele>457.949</ele>
        <time>2012-03-30T08:56:46Z</time>
      </trkpt>
      <trkpt lat="47.26252" lon="4.95985">
        <ele>463.039</ele>
        <time>2012-03-30T08:56:57Z</time>
      </trkpt>
      <trkpt lat="47.26238" lon="4.95987">
        <ele>461.32</ele>
        <time>2012-03-30T08:57:08Z</time>
      </trkpt>
      <trkpt lat="47.26227" lon="4.95992">
        <ele>456.802</ele>
        <time>2012-03-30T08:57:19Z</time>
      </trkpt>
      <trkpt lat="47.26208" lon="4.95998">
        <ele>457.666</ele>
        <time>2012-03-30T08:57:30Z</time>
      </trkpt>
      <trkpt lat="47.26198" lon="4.96003">
        <ele>453.024</ele>
        <time>2012-03-30T08:57:41Z</time>
      </trkpt>
      <trkpt lat="47.26192" lon="4.96005">
        <ele>454.875</ele>
        <time>2012-03-30T08:57:52Z</time>
      </trkpt>
      <trkpt lat="47.2618" lon="4.96003">
        <ele>461.179</ele>
        <time>2012-03-30T08:58:03Z</time>
      </trkpt>
      <trkpt lat="47.26168" lon="4.96007">
        <ele>455.484</ele>
        <time>2012-03-30T08:58:14Z</time>
      </trkpt>
      <trkpt lat="47.26155" lon="4.96018">
        <ele>453.102</ele>
        <time>2012-03-30T08:58:25Z</time>
      </trkpt>
      <trkpt lat="47.26147" lon="4.96022">
        <ele>453.155</ele>
        <time>2012-03-30T08:58:36Z</time>
      </trkpt>
      <trkpt lat="47.26138" lon="4.96032">
        <ele>457.37</ele>
        <time>2012-03-30T08:58:47Z</time>
      </trkpt>
      <trkpt lat="47.26125" lon="4.96045">
        <ele>462.919</ele>
        <time>2012-03-30T08:58:58Z</time>
      </trkpt>
      <trkpt lat="47.26108" lon="4.96063">
        <ele>465.588</ele>
        <time>2012-03-30T08:59:09Z</time>
      </trkpt>
      <trkpt lat="47.26095" lon="4.9608">
        <ele>472.017</ele>
        <time>2012-03-30T08:59:20Z</time>
      </trkpt>
      <trkpt lat="47.26083" lon="4.96105">
        <ele>471.832</ele>
        <time>2012-03-30T08:59:31Z</time>
      </trkpt>
      <trkpt lat="47.26077" lon="4.9612">
        <ele>462.475</ele>
        <time>2012-03-30T08:59:42Z</time>
      </trkpt>
      <trkpt lat="47.26058" lon="4.96145">
        <ele>464.014</ele>
        <time>2012-03-30T08:59:53Z</time>
      </trkpt>
      <trkpt lat="47.2605" lon="4.96163">
        <ele>462.703</ele>
        <time>2012-03-30T09:00:04Z</time>
      </trkpt>
      <trkpt lat="47.2604" lon="4.96177">
        <ele>462.523</ele>
        <time>2012-03-30T09:00:15Z</time>
      </trkpt>
      <trkpt lat="47.26032" lon="4.96197">
        <ele>456.885</ele>
        <time>2012-03-30T09:00:26Z</time>
      </trkpt>
      <trkpt lat="47.26028" lon="4.96212">
        <ele>459.739</ele>
        <time>2012-03-30T09:00:37Z</time>
      </trkpt>
      <trkpt lat="47.26022" lon="4.96233">
        <ele>460.977</ele>
        <time>2012-03-30T09:00:48Z</time>
      </trkpt>
      <trkpt lat="47.26018" lon="4.96267">
        <ele>452.052</ele>
        <time>2012-03-30T09:00:59Z</time>
      </trkpt>
      <trkpt lat="47.26015" lon="4.96292">
        <ele>441.611</ele>
        <time>2012-03-30T09:01:10Z</time>
      </trkpt>
      <trkpt lat="47.26015" lon="4.9632">
        <ele>433.847</ele>
        <time>2012-03-30T09:01:21Z</time>
      </trkpt>
      <trkpt lat="47.26015" lon="4.9635">
        <ele>422.915</ele>
        <time>2012-03-30T09:01:32Z</time>
      </trkpt>
      <trkpt lat="47.26018" lon="4.96373">
        <ele>411.925</ele>
        <time>2012-03-30T09:01:43Z</time>
      </trkpt>
      <trkpt lat="47.26018" lon="4.96393">
        <ele>397.9</ele>
        <time>2012-03-30T09:01:54Z</time>
      </trkpt>
      <trkpt lat="47.26018" lon="4.96417">
        <ele>381.098</ele>
        <time>2012-03-30T09:02:05Z</time>
      </trkpt>
      <trkpt lat="47.26015" lon="4.96447">
        <ele>362.077</ele>
        <time>2012-03-30T09:02:16Z</time>
      </trkpt>
      <trkpt lat="47.26017" lon="4.96475">
        <ele>340.597</ele>
        <time>2012-03-30T09:02:27Z</time>
      </trkpt>
      <trkpt lat="47.26017" lon="4.96505">
        <ele>318.835</ele>
        <time>2012-03-30T09:02:38Z</time>
      </trkpt>
      <trkpt lat="47.26017" lon="4.96523">
        <ele>300.234</ele>
        <time>2012-03-30T09:02:49Z</time>
      </trkpt>
      <trkpt lat="47.26018" lon="4.96553">
        <ele>278.221</ele>
        <time>2012-03-30T09:03:00Z</time>
      </trkpt>
      <trkpt lat="47.26015" lon="4.96573">
        <ele>262.936</ele>
        <time>2012-03-30T09:03:11Z</time>
      </trkpt>
      <trkpt lat="47.26015" lon="4.96605">
        <ele>244.345</ele>
        <time>2012-03-30T09:03:22Z</time>
      </trkpt>
      <trkpt lat="47.26015" lon="4.96625">
        <ele>231.117</ele>
        <time>2012-03-30T09:03:33Z</time>
      </trkpt>
      <trkpt lat="47.26013" lon="4.96645">
        <ele>222.552</ele>
        <time>2012-03-30T09:03:44Z</time>
      </trkpt>
      <trkpt lat="47.26008" lon="4.96672">
        <ele>194.545</ele>
        <time>2012-03-30T09:03:55Z</time>
      </trkpt>
      <trkpt lat="47.26003" lon="4.96698">
        <ele>175.637</ele>
        <time>2012-03-30T09:04:06Z</time>
      </trkpt>
      <trkpt lat="47.26" lon="4.96728">
        <ele>161.985</ele>
        <time>2012-03-30T09:04:17Z</time>
      </trkpt>
      <trkpt lat="47.25993" lon="4.96743">
        <ele>161.676</ele>
        <time>2012-03-30T09:04:28Z</time>
      </trkpt>
      <trkpt lat="47.25985" lon="4.96772">
        <ele>144.479</ele>
        <time>2012-03-30T09:04:39Z</time>
      </trkpt>
      <trkpt lat="47.25982" lon="4.96785">
        <ele>148.431</ele>
        <time>2012-03-30T09:04:50Z</time>
      </trkpt>
      <trkpt lat="47.25978" lon="4.96798">
        <ele>149.884</ele>
        <time>2012-03-30T09:05:01Z</time>
      </trkpt>
      <trkpt lat="47.25978" lon="4.96798">
        <ele>157.572</ele>
        <time>2012-03-30T09:05:12Z</time>
      </trkpt>
      <trkpt lat="47.25978" lon="4.96798">
        <ele>157.572</ele>
        <time>2012-03-30T09:05:23Z</time>
      </trkpt>
      <trkpt lat="47.25978" lon="4.96798">
        <ele>157.572</ele>
        <time>2012-03-30T09:05:34Z</time>
      </trkpt>
      <trkpt lat="47.25977" lon="4.96805">
        <ele>151.326</ele>
        <time>2012-03-30T09:05:45Z</time>
      </trkpt>
      <trkpt lat="47.25973" lon="4.96818">
        <ele>181.197</ele>
        <time>2012-03-30T09:05:56Z</time>
      </trkpt>
      <trkpt lat="47.25967" lon="4.96825">
        <ele>201.25</ele>
        <time>2012-03-30T09:06:07Z</time>
      </trkpt>
      <trkpt lat="47.25958" lon="4.96828">
        <ele>218.1</ele>
        <time>2012-03-30T09:06:18Z</time>
      </trkpt>
      <trkpt lat="47.25947" lon="4.96835">
        <ele>212.33</ele>
        <time>2012-03-30T09:06:29Z</time>
      </trkpt>
      <trkpt lat="47.25935" lon="4.9684">
        <ele>229.1</ele>
        <time>2012-03-30T09:06:40Z</time>
      </trkpt>
      <trkpt lat="47.2593" lon="4.96842">
        <ele>247.586</ele>
        <time>2012-03-30T09:06:51Z</time>
      </trkpt>
      <trkpt lat="47.25923" lon="4.96848">
        <ele>265.883</ele>
        <time>2012-03-30T09:07:02Z</time>
      </trkpt>
      <trkpt lat="47.25908" lon="4.96848">
        <ele>317.752</ele>
        <time>2012-03-30T09:07:13Z</time>
      </trkpt>
      <trkpt lat="47.25898" lon="4.9685">
        <ele>333.044</ele>
        <time>2012-03-30T09:07:24Z</time>
      </trkpt>
      <trkpt lat="47.25895" lon="4.96855">
        <ele>345.47</ele>
        <time>2012-03-30T09:07:35Z</time>
      </trkpt>
      <trkpt lat="47.25883" lon="4.96862">
        <ele>343.498</ele>
        <time>2012-03-30T09:07:46Z</time>
      </trkpt>
      <trkpt lat="47.25865" lon="4.96867">
        <ele>360.346</ele>
        <time>2012-03-30T09:07:57Z</time>
      </trkpt>
      <trkpt lat="47.25848" lon="4.9687">
        <ele>354.775</ele>
        <time>2012-03-30T09:08:08Z</time>
      </trkpt>
      <trkpt lat="47.25842" lon="4.96872">
        <ele>361.987</ele>
        <time>2012-03-30T09:08:19Z</time>
      </trkpt>
      <trkpt lat="47.25833" lon="4.96877">
        <ele>339.234</ele>
        <time>2012-03-30T09:08:30Z</time>
      </trkpt>
      <trkpt lat="47.25817" lon="4.96882">
        <ele>314.846</ele>
        <time>2012-03-30T09:08:41Z</time>
      </trkpt>
      <trkpt lat="47.25803" lon="4.96882">
        <ele>311.532</ele>
        <time>2012-03-30T09:08:52Z</time>
      </trkpt>
      <trkpt lat="47.25795" lon="4.96878">
        <ele>315.683</ele>
        <time>2012-03-30T09:09:03Z</time>
      </trkpt>
      <trkpt lat="47.25783" lon="4.96873">
        <ele>317.864</ele>
        <time>2012-03-30T09:09:14Z</time>
      </trkpt>
      <trkpt lat="47.25773" lon="4.96858">
        <ele>335.105</ele>
        <time>2012-03-30T09:09:25Z</time>
      </trkpt>
      <trkpt lat="47.25765" lon="4.96847">
        <ele>362.865</ele>
        <time>2012-03-30T09:09:36Z</time>
      </trkpt>
      <trkpt lat="47.25755" lon="4.9683">
        <ele>381.048</ele>
        <time>2012-03-30T09:09:47Z</time>
      </trkpt>
      <trkpt lat="47.25748" lon="4.9681">
        <ele>387.508</ele>
        <time>2012-03-30T09:09:58Z</time>
      </trkpt>
      <trkpt lat="47.25737" lon="4.96793">
        <ele>393.686</ele>
        <time>2012-03-30T09:10:09Z</time>
      </trkpt>
      <trkpt lat="47.25733" lon="4.96785">
        <ele>391.795</ele>
        <time>2012-03-30T09:10:20Z</time>
      </trkpt>
      <trkpt lat="47.25732" lon="4.96775">
        <ele>396.397</ele>
        <time>2012-03-30T09:10:31Z</time>
      </trkpt>
      <trkpt lat="47.2573" lon="4.96767">
        <ele>406.955</ele>
        <time>2012-03-30T09:10:42Z</time>
      </trkpt>
      <trkpt lat="47.25728" lon="4.96753">
        <ele>414.111</ele>
        <time>2012-03-30T09:10:53Z</time>
      </trkpt>
      <trkpt lat="47.25722" lon="4.96732">
        <ele>434.707</ele>
        <time>2012-03-30T09:11:04Z</time>
      </trkpt>
      <trkpt lat="47.25722" lon="4.96712">
        <ele>436.804</ele>
        <time>2012-03-30T09:11:15Z</time>
      </trkpt>
      <trkpt lat="47.25723" lon="4.96685">
        <ele>452.433</ele>
        <time>2012-03-30T09:11:26Z</time>
      </trkpt>
      <trkpt lat="47.25725" lon="4.96675">
        <ele>460.147</ele>
        <time>2012-03-30T09:11:37Z</time>
      </trkpt>
      <trkpt lat="47.25732" lon="4.96648">
        <ele>446.021</ele>
        <time>2012-03-30T09:11:48Z</time>
      </trkpt>
      <trkpt lat="47.25735" lon="4.96637">
        <ele>451.685</ele>
        <time>2012-03-30T09:11:59Z</time>
      </trkpt>
      <trkpt lat="47.25737" lon="4.96613">
        <ele>442.654</ele>
        <time>2012-03-30T09:12:10Z</time>
      </trkpt>
      <trkpt lat="47.25737" lon="4.96585">
        <ele>428.248</ele>
        <time>2012-03-30T09:12:21Z</time>
      </trkpt>
      <trkpt lat="47.25738" lon="4.96563">
        <ele>424.442</ele>
        <time>2012-03-30T09:12:32Z</time>
      </trkpt>
      <trkpt lat="47.25737" lon="4.96543">
        <ele>435.546</ele>
        <time>2012-03-30T09:12:43Z</time>
      </trkpt>
      <trkpt lat="47.25735" lon="4.96517">
        <ele>425.006</ele>
        <time>2012-03-30T09:12:54Z</time>
      </trkpt>
      <trkpt lat="47.25735" lon="4.96493">
        <ele>421.702</ele>
        <time>2012-03-30T09:13:05Z</time>
      </trkpt>
      <trkpt lat="47.25738" lon="4.96475">
        <ele>418.015</ele>
        <time>2012-03-30T09:13:16Z</time>
      </trkpt>
      <trkpt lat="47.25745" lon="4.96457">
        <ele>420.348</ele>
        <time>2012-03-30T09:13:27Z</time>
      </trkpt>
      <trkpt lat="47.25743" lon="4.96447">
        <ele>423.156</ele>
        <time>2012-03-30T09:13:38Z</time>
      </trkpt>
      <trkpt lat="47.2574" lon="4.96422">
        <ele>419.207</ele>
        <time>2012-03-30T09:13:49Z</time>
      </trkpt>
      <trkpt lat="47.25738" lon="4.9641">
        <ele>415.629</ele>
        <time>2012-03-30T09:14:00Z</time>
      </trkpt>
      <trkpt lat="47.25733" lon="4.96388">
        <ele>407.551</ele>
        <time>2012-03-30T09:14:11Z</time>
      </trkpt>
      <trkpt lat="47.25727" lon="4.96357">
        <ele>403.271</ele>
        <time>2012-03-30T09:14:22Z</time>
      </trkpt>
      <trkpt lat="47.25728" lon="4.96327">
        <ele>415.481</ele>
        <time>2012-03-30T09:14:33Z</time>
      </trkpt>
      <trkpt lat="47.25725" lon="4.96302">
        <ele>405.913</ele>
        <time>2012-03-30T09:14:44Z</time>
      </trkpt>
      <trkpt lat="47.25723" lon="4.96277">
        <ele>405.432</ele>
        <time>2012-03-30T09:14:55Z</time>
      </trkpt>
      <trkpt lat="47.2572" lon="4.96262">
        <ele>421.161</ele>
        <time>2012-03-30T09:15:06Z</time>
      </trkpt>
      <trkpt lat="47.25722" lon="4.96248">
        <ele>410.883</ele>
        <time>2012-03-30T09:15:17Z</time>
      </trkpt>
      <trkpt lat="47.25717" lon="4.9624">
        <ele>406.382</ele>
        <time>2012-03-30T09:15:28Z</time>
      </trkpt>
      <trkpt lat="47.25713" lon="4.9623">
        <ele>400.791</ele>
        <time>2012-03-30T09:15:39Z</time>
      </trkpt>
      <trkpt lat="47.25703" lon="4.96213">
        <ele>393.496</ele>
        <time>2012-03-30T09:15:50Z</time>
      </trkpt>
      <trkpt lat="47.25695" lon="4.96198">
        <ele>394.124</ele>
        <time>2012-03-30T09:16:01Z</time>
      </trkpt>
      <trkpt lat="47.25692" lon="4.9619">
        <ele>394.653</ele>
        <time>2012-03-30T09:16:12Z</time>
      </trkpt>
      <trkpt lat="47.25682" lon="4.9618">
        <ele>393.682</ele>
        <time>2012-03-30T09:16:23Z</time>
      </trkpt>
      <trkpt lat="47.25668" lon="4.96163">
        <ele>394.827</ele>
        <time>2012-03-30T09:16:34Z</time>
      </trkpt>
      <trkpt lat="47.2566" lon="4.96148">
        <ele>390.841</ele>
        <time>2012-03-30T09:16:45Z</time>
      </trkpt>
      <trkpt lat="47.25645" lon="4.96135">
        <ele>389.013</ele>
        <time>2012-03-30T09:16:56Z</time>
      </trkpt>
      <trkpt lat="47.2564" lon="4.96118">
        <ele>391.085</ele>
        <time>2012-03-30T09:17:07Z</time>
      </trkpt>
      <trkpt lat="47.25627" lon="4.96105">
        <ele>377.41</ele>
        <time>2012-03-30T09:17:18Z</time>
      </trkpt>
      <trkpt lat="47.25615" lon="4.96085">
        <ele>378.242</ele>
        <time>2012-03-30T09:17:29Z</time>
      </trkpt>
      <trkpt lat="47.25612" lon="4.96073">
        <ele>382.474</ele>
        <time>2012-03-30T09:17:40Z</time>
      </trkpt>
      <trkpt lat="47.25615" lon="4.96055">
        <ele>394.256</ele>
        <time>2012-03-30T09:17:51Z</time>
      </trkpt>
      <trkpt lat="47.2562" lon="4.96043">
        <ele>396.472</ele>
        <time>2012-03-30T09:18:02Z</time>
      </trkpt>
      <trkpt lat="47.25622" lon="4.96033">
        <ele>400.062</ele>
        <time>2012-03-30T09:18:13Z</time>
      </trkpt>
      <trkpt lat="47.25623" lon="4.96023">
        <ele>400.895</ele>
        <time>2012-03-30T09:18:24Z</time>
      </trkpt>
      <trkpt lat="47.25633" lon="4.96008">
        <ele>407.316</ele>
        <time>2012-03-30T09:18:35Z</time>
      </trkpt>
      <trkpt lat="47.25643" lon="4.9599">
        <ele>409.118</ele>
        <time>2012-03-30T09:18:46Z</time>
      </trkpt>
      <trkpt lat="47.25648" lon="4.95965">
        <ele>413.791</ele>
        <time>2012-03-30T09:18:57Z</time>
      </trkpt>
      <trkpt lat="47.2565" lon="4.95943">
        <ele>420.747</ele>
        <time>2012-03-30T09:19:08Z</time>
      </trkpt>
      <trkpt lat="47.25645" lon="4.95933">
        <ele>423.8</ele>
        <time>2012-03-30T09:19:19Z</time>
      </trkpt>
      <trkpt lat="47.25638" lon="4.95925">
        <ele>424.595</ele>
        <time>2012-03-30T09:19:30Z</time>
      </trkpt>
      <trkpt lat="47.25637" lon="4.95898">
        <ele>421.377</ele>
        <time>2012-03-30T09:19:41Z</time>
      </trkpt>
      <trkpt lat="47.2565" lon="4.95875">
        <ele>421.721</ele>
        <time>2012-03-30T09:19:52Z</time>
      </trkpt>
      <trkpt lat="47.25663" lon="4.95852">
        <ele>424.855</ele>
        <time>2012-03-30T09:20:03Z</time>
      </trkpt>
      <trkpt lat="47.2567" lon="4.95838">
        <ele>424.11</ele>
        <time>2012-03-30T09:20:14Z</time>
      </trkpt>
      <trkpt lat="47.2568" lon="4.95827">
        <ele>418.672</ele>
        <time>2012-03-30T09:20:25Z</time>
      </trkpt>
      <trkpt lat="47.25695" lon="4.95822">
        <ele>436.803</ele>
        <time>2012-03-30T09:20:36Z</time>
      </trkpt>
      <trkpt lat="47.25708" lon="4.95817">
        <ele>442.243</ele>
        <time>2012-03-30T09:20:47Z</time>
      </trkpt>
      <trkpt lat="47.25728" lon="4.95812">
        <ele>446.062</ele>
        <time>2012-03-30T09:20:58Z</time>
      </trkpt>
      <trkpt lat="47.2574" lon="4.9581">
        <ele>444.463</ele>
        <time>2012-03-30T09:21:09Z</time>
      </trkpt>
      <trkpt lat="47.25753" lon="4.9581">
        <ele>448.699</ele>
        <time>2012-03-30T09:21:20Z</time>
      </trkpt>
      <trkpt lat="47.25765" lon="4.95807">
        <ele>449.358</ele>
        <time>2012-03-30T09:21:31Z</time>
      </trkpt>
      <trkpt lat="47.2578" lon="4.95803">
        <ele>452.169</ele>
        <time>2012-03-30T09:21:42Z</time>
      </trkpt>
      <trkpt lat="47.258" lon="4.95798">
        <ele>455.299</ele>
        <time>2012-03-30T09:21:53Z</time>
      </trkpt>
      <trkpt lat="47.25817" lon="4.958">
        <ele>456.48</ele>
        <time>2012-03-30T09:22:04Z</time>
      </trkpt>
      <trkpt lat="47.25825" lon="4.95797">
        <ele>458.879</ele>
        <time>2012-03-30T09:22:15Z</time>
      </trkpt>
      <trkpt lat="47.25843" lon="4.95792">
        <ele>457.833</ele>
        <time>2012-03-30T09:22:26Z</time>
      </trkpt>
      <trkpt lat="47.25857" lon="4.9579">
        <ele>456.601</ele>
        <time>2012-03-30T09:22:37Z</time>
      </trkpt>
      <trkpt lat="47.25868" lon="4.95788">
        <ele>455.952</ele>
        <time>2012-03-30T09:22:48Z</time>
      </trkpt>
      <trkpt lat="47.25873" lon="4.95788">
        <ele>455.697</ele>
        <time>2012-03-30T09:22:59Z</time>
      </trkpt>
      <trkpt lat="47.25878" lon="4.95793">
        <ele>455.873</ele>
        <time>2012-03-30T09:23:10Z</time>
      </trkpt>
      <trkpt lat="47.2589" lon="4.95798">
        <ele>458.217</ele>
        <time>2012-03-30T09:23:21Z</time>
      </trkpt>
      <trkpt lat="47.25907" lon="4.95805">
        <ele>458.639</ele>
        <time>2012-03-30T09:23:32Z</time>
      </trkpt>
      <trkpt lat="47.25917" lon="4.95812">
        <ele>459.159</ele>
        <time>2012-03-30T09:23:43Z</time>
      </trkpt>
      <trkpt lat="47.25935" lon="4.95818">
        <ele>457.954</ele>
        <time>2012-03-30T09:23:54Z</time>
      </trkpt>
      <trkpt lat="47.2595" lon="4.95825">
        <ele>459.654</ele>
        <time>2012-03-30T09:24:05Z</time>
      </trkpt>
      <trkpt lat="47.2596" lon="4.95835">
        <ele>460.319</ele>
        <time>2012-03-30T09:24:16Z</time>
      </trkpt>
      <trkpt lat="47.25967" lon="4.95838">
        <ele>460.252</ele>
        <time>2012-03-30T09:24:27Z</time>
      </trkpt>
      <trkpt lat="47.25982" lon="4.95845">
        <ele>461.641</ele>
        <time>2012-03-30T09:24:38Z</time>
      </trkpt>
      <trkpt lat="47.25992" lon="4.95848">
        <ele>462.25</ele>
        <time>2012-03-30T09:24:49Z</time>
      </trkpt>
      <trkpt lat="47.26012" lon="4.95858">
        <ele>461.772</ele>
        <time>2012-03-30T09:25:00Z</time>
      </trkpt>
      <trkpt lat="47.2603" lon="4.95867">
        <ele>460.42</ele>
        <time>2012-03-30T09:25:11Z</time>
      </trkpt>
      <trkpt lat="47.26045" lon="4.95875">
        <ele>460.724</ele>
        <time>2012-03-30T09:25:22Z</time>
      </trkpt>
      <trkpt lat="47.26057" lon="4.95878">
        <ele>461.524</ele>
        <time>2012-03-30T09:25:33Z</time>
      </trkpt>
      <trkpt lat="47.26062" lon="4.95885">
        <ele>458.887</ele>
        <time>2012-03-30T09:25:44Z</time>
      </trkpt>
      <trkpt lat="47.26067" lon="4.95892">
        <ele>457.572</ele>
        <time>2012-03-30T09:25:55Z</time>
      </trkpt>
      <trkpt lat="47.26068" lon="4.959">
        <ele>456.297</ele>
        <time>2012-03-30T09:26:06Z</time>
      </trkpt>
      <trkpt lat="47.2607" lon="4.95915">
        <ele>454.138</ele>
        <time>2012-03-30T09:26:17Z</time>
      </trkpt>
      <trkpt lat="47.26068" lon="4.95933">
        <ele>451.106</ele>
        <time>2012-03-30T09:26:28Z</time>
      </trkpt>
      <trkpt lat="47.2607" lon="4.95952">
        <ele>453.746</ele>
        <time>2012-03-30T09:26:39Z</time>
      </trkpt>
      <trkpt lat="47.26072" lon="4.95973">
        <ele>455.799</ele>
        <time>2012-03-30T09:26:50Z</time>
      </trkpt>
      <trkpt lat="47.26077" lon="4.95997">
        <ele>457.01</ele>
        <time>2012-03-30T09:27:01Z</time>
      </trkpt>
      <trkpt lat="47.26083" lon="4.96013">
        <ele>457.024</ele>
        <time>2012-03-30T09:27:12Z</time>
      </trkpt>
      <trkpt lat="47.26092" lon="4.96045">
        <ele>452.844</ele>
        <time>2012-03-30T09:27:23Z</time>
      </trkpt>
      <trkpt lat="47.26093" lon="4.96058">
        <ele>453.787</ele>
        <time>2012-03-30T09:27:34Z</time>
      </trkpt>
      <trkpt lat="47.26098" lon="4.96073">
        <ele>454.753</ele>
        <time>2012-03-30T09:27:45Z</time>
      </trkpt>
      <trkpt lat="47.26098" lon="4.96093">
        <ele>449.904</ele>
        <time>2012-03-30T09:27:56Z</time>
      </trkpt>
      <trkpt lat="47.26097" lon="4.961">
        <ele>449.088</ele>
        <time>2012-03-30T09:28:07Z</time>
      </trkpt>
      <trkpt lat="47.26102" lon="4.96115">
        <ele>446.744</ele>
        <time>2012-03-30T09:28:18Z</time>
      </trkpt>
      <trkpt lat="47.26102" lon="4.96132">
        <ele>445.314</ele>
        <time>2012-03-30T09:28:29Z</time>
      </trkpt>
      <trkpt lat="47.2611" lon="4.96152">
        <ele>444.92</ele>
        <time>2012-03-30T09:28:40Z</time>
      </trkpt>
      <trkpt lat="47.2611" lon="4.96172">
        <ele>442.184</ele>
        <time>2012-03-30T09:28:51Z</time>
      </trkpt>
      <trkpt lat="47.26113" lon="4.96193">
        <ele>438.461</ele>
        <time>2012-03-30T09:29:02Z</time>
      </trkpt>
      <trkpt lat="47.2612" lon="4.96217">
        <ele>433.233</ele>
        <time>2012-03-30T09:29:13Z</time>
      </trkpt>
      <trkpt lat="47.26128" lon="4.9624">
        <ele>432.961</ele>
        <time>2012-03-30T09:29:24Z</time>
      </trkpt>
      <trkpt lat="47.26132" lon="4.96243">
        <ele>433.417</ele>
        <time>2012-03-30T09:29:35Z</time>
      </trkpt>
      <trkpt lat="47.26137" lon="4.96257">
        <ele>433.808</ele>
        <time>2012-03-30T09:29:46Z</time>
      </trkpt>
      <trkpt lat="47.2614" lon="4.96262">
        <ele>431.101</ele>
        <time>2012-03-30T09:29:57Z</time>
      </trkpt>
      <trkpt lat="47.26143" lon="4.96265">
        <ele>427.958</ele>
        <time>2012-03-30T09:30:08Z</time>
      </trkpt>
      <trkpt lat="47.26147" lon="4.96277">
        <ele>426.354</ele>
        <time>2012-03-30T09:30:19Z</time>
      </trkpt>
      <trkpt lat="47.2615" lon="4.96285">
        <ele>424.617</ele>
        <time>2012-03-30T09:30:30Z</time>
      </trkpt>
      <trkpt lat="47.2615" lon="4.96308">
        <ele>428.1</ele>
        <time>2012-03-30T09:30:41Z</time>
      </trkpt>
      <trkpt lat="47.26153" lon="4.9632">
        <ele>425.388</ele>
        <time>2012-03-30T09:30:52Z</time>
      </trkpt>
      <trkpt lat="47.26162" lon="4.96337">
        <ele>423.271</ele>
        <time>2012-03-30T09:31:03Z</time>
      </trkpt>
      <trkpt lat="47.26167" lon="4.96352">
        <ele>420.522</ele>
        <time>2012-03-30T09:31:14Z</time>
      </trkpt>
      <trkpt lat="47.26175" lon="4.9638">
        <ele>419.283</ele>
        <time>2012-03-30T09:31:25Z</time>
      </trkpt>
      <trkpt lat="47.2618" lon="4.96397">
        <ele>420.705</ele>
        <time>2012-03-30T09:31:36Z</time>
      </trkpt>
      <trkpt lat="47.26193" lon="4.96418">
        <ele>418.481</ele>
        <time>2012-03-30T09:31:47Z</time>
      </trkpt>
      <trkpt lat="47.26197" lon="4.96427">
        <ele>418.382</ele>
        <time>2012-03-30T09:31:58Z</time>
      </trkpt>
      <trkpt lat="47.26202" lon="4.96432">
        <ele>416.949</ele>
        <time>2012-03-30T09:32:09Z</time>
      </trkpt>
      <trkpt lat="47.26202" lon="4.96432">
        <ele>416.949</ele>
        <time>2012-03-30T09:32:20Z</time>
      </trkpt>
      <trkpt lat="47.26202" lon="4.96432">
        <ele>416.949</ele>
        <time>2012-03-30T09:32:31Z</time>
      </trkpt>
      <trkpt lat="47.26202" lon="4.96432">
        <ele>416.949</ele>
        <time>2012-03-30T09:32:42Z</time>
      </trkpt>
      <trkpt lat="47.26207" lon="4.96438">
        <ele>416.845</ele>
        <time>2012-03-30T09:32:53Z</time>
      </trkpt>
      <trkpt lat="47.26207" lon="4.96438">
        <ele>416.845</ele>
        <time>2012-03-30T09:33:04Z</time>
      </trkpt>
      <trkpt lat="47.26208" lon="4.9644">
        <ele>416.685</ele>
        <time>2012-03-30T09:33:15Z</time>
      </trkpt>
      <trkpt lat="47.26208" lon="4.9644">
        <ele>416.286</ele>
        <time>2012-03-30T09:33:26Z</time>
      </trkpt>
      <trkpt lat="47.26208" lon="4.96442">
        <ele>417.54</ele>
        <time>2012-03-30T09:33:37Z</time>
      </trkpt>
      <trkpt lat="47.26208" lon="4.96443">
        <ele>416.096</ele>
        <time>2012-03-30T09:33:48Z</time>
      </trkpt>
      <trkpt lat="47.26208" lon="4.96443">
        <ele>416.096</ele>
        <time>2012-03-30T09:33:59Z</time>
      </trkpt>
      <trkpt lat="47.26208" lon="4.96443">
        <ele>416.471</ele>
        <time>2012-03-30T09:34:10Z</time>
      </trkpt>
      <trkpt lat="47.26208" lon="4.96445">
        <ele>414.908</ele>
        <time>2012-03-30T09:34:21Z</time>
      </trkpt>
      <trkpt lat="47.2621" lon="4.96445">
        <ele>414.284</ele>
        <time>2012-03-30T09:34:32Z</time>
      </trkpt>
      <trkpt lat="47.2621" lon="4.96447">
        <ele>413.687</ele>
        <time>2012-03-30T09:34:43Z</time>
      </trkpt>
      <trkpt lat="47.2621" lon="4.96447">
        <ele>413.687</ele>
        <time>2012-03-30T09:34:54Z</time>
      </trkpt>
      <trkpt lat="47.2621" lon="4.96447">
        <ele>413.687</ele>
        <time>2012-03-30T09:35:05Z</time>
      </trkpt>
      <trkpt lat="47.26212" lon="4.9645">
        <ele>414.614</ele>
        <time>2012-03-30T09:35:16Z</time>
      </trkpt>
      <trkpt lat="47.26218" lon="4.96455">
        <ele>411.097</ele>
        <time>2012-03-30T09:35:27Z</time>
      </trkpt>
      <trkpt lat="47.26227" lon="4.9646">
        <ele>409.527</ele>
        <time>2012-03-30T09:35:38Z</time>
      </trkpt>
      <trkpt lat="47.26235" lon="4.96462">
        <ele>408.529</ele>
        <time>2012-03-30T09:35:49Z</time>
      </trkpt>
      <trkpt lat="47.26248" lon="4.96463">
        <ele>407.796</ele>
        <time>2012-03-30T09:36:00Z</time>
      </trkpt>
      <trkpt lat="47.26255" lon="4.96462">
        <ele>407.757</ele>
        <time>2012-03-30T09:36:11Z</time>
      </trkpt>
      <trkpt lat="47.26263" lon="4.96458">
        <ele>409.276</ele>
        <time>2012-03-30T09:36:22Z</time>
      </trkpt>
      <trkpt lat="47.26275" lon="4.96447">
        <ele>410.082</ele>
        <time>2012-03-30T09:36:33Z</time>
      </trkpt>
      <trkpt lat="47.26288" lon="4.96432">
        <ele>409.993</ele>
        <time>2012-03-30T09:36:44Z</time>
      </trkpt>
      <trkpt lat="47.263" lon="4.9642">
        <ele>409.529</ele>
        <time>2012-03-30T09:36:55Z</time>
      </trkpt>
      <trkpt lat="47.2631" lon="4.96405">
        <ele>412.53</ele>
        <time>2012-03-30T09:37:06Z</time>
      </trkpt>
      <trkpt lat="47.26313" lon="4.964">
        <ele>413.12</ele>
        <time>2012-03-30T09:37:17Z</time>
      </trkpt>
      <trkpt lat="47.26318" lon="4.9639">
        <ele>415.559</ele>
        <time>2012-03-30T09:37:28Z</time>
      </trkpt>
      <trkpt lat="47.26327" lon="4.96377">
        <ele>415.532</ele>
        <time>2012-03-30T09:37:39Z</time>
      </trkpt>
      <trkpt lat="47.26332" lon="4.96367">
        <ele>414.396</ele>
        <time>2012-03-30T09:37:50Z</time>
      </trkpt>
      <trkpt lat="47.26335" lon="4.96355">
        <ele>415.72</ele>
        <time>2012-03-30T09:38:01Z</time>
      </trkpt>
      <trkpt lat="47.26342" lon="4.96342">
        <ele>418.157</ele>
        <time>2012-03-30T09:38:12Z</time>
      </trkpt>
      <trkpt lat="47.26345" lon="4.96337">
        <ele>418.976</ele>
        <time>2012-03-30T09:38:23Z</time>
      </trkpt>
      <trkpt lat="47.26348" lon="4.96333">
        <ele>419.331</ele>
        <time>2012-03-30T09:38:34Z</time>
      </trkpt>
      <trkpt lat="47.26352" lon="4.96325">
        <ele>419.712</ele>
        <time>2012-03-30T09:38:45Z</time>
      </trkpt>
      <trkpt lat="47.26353" lon="4.96323">
        <ele>420.015</ele>
        <time>2012-03-30T09:38:56Z</time>
      </trkpt>
      <trkpt lat="47.26357" lon="4.96318">
        <ele>419.93</ele>
        <time>2012-03-30T09:39:07Z</time>
      </trkpt>
      <trkpt lat="47.26358" lon="4.96317">
        <ele>419.668</ele>
        <time>2012-03-30T09:39:18Z</time>
      </trkpt>
      <trkpt lat="47.26362" lon="4.96313">
        <ele>419.893</ele>
        <time>2012-03-30T09:39:29Z</time>
      </trkpt>
      <trkpt lat="47.26365" lon="4.96308">
        <ele>419.892</ele>
        <time>2012-03-30T09:39:40Z</time>
      </trkpt>
      <trkpt lat="47.26365" lon="4.96307">
        <ele>419.51</ele>
        <time>2012-03-30T09:39:51Z</time>
      </trkpt>
      <trkpt lat="47.26367" lon="4.96305">
        <ele>419.514</ele>
        <time>2012-03-30T09:40:02Z</time>
      </trkpt>
      <trkpt lat="47.26372" lon="4.963">
        <ele>419.013</ele>
        <time>2012-03-30T09:40:13Z</time>
      </trkpt>
      <trkpt lat="47.26373" lon="4.96293">
        <ele>419.82</ele>
        <time>2012-03-30T09:40:24Z</time>
      </trkpt>
      <trkpt lat="47.26375" lon="4.96292">
        <ele>421.96</ele>
        <time>2012-03-30T09:40:35Z</time>
      </trkpt>
      <trkpt lat="47.2638" lon="4.96287">
        <ele>421.434</ele>
        <time>2012-03-30T09:40:46Z</time>
      </trkpt>
      <trkpt lat="47.26382" lon="4.96285">
        <ele>422.863</ele>
        <time>2012-03-30T09:40:57Z</time>
      </trkpt>
      <trkpt lat="47.26387" lon="4.96282">
        <ele>421.827</ele>
        <time>2012-03-30T09:41:08Z</time>
      </trkpt>
      <trkpt lat="47.26388" lon="4.96282">
        <ele>422.436</ele>
        <time>2012-03-30T09:41:19Z</time>
      </trkpt>
      <trkpt lat="47.26395" lon="4.96282">
        <ele>425.552</ele>
        <time>2012-03-30T09:41:30Z</time>
      </trkpt>
      <trkpt lat="47.26398" lon="4.96285">
        <ele>426.537</ele>
        <time>2012-03-30T09:41:41Z</time>
      </trkpt>
      <trkpt lat="47.26402" lon="4.96292">
        <ele>430.527</ele>
        <time>2012-03-30T09:41:52Z</time>
      </trkpt>
      <trkpt lat="47.2641" lon="4.963">
        <ele>434.785</ele>
        <time>2012-03-30T09:42:03Z</time>
      </trkpt>
      <trkpt lat="47.26413" lon="4.963">
        <ele>436.147</ele>
        <time>2012-03-30T09:42:14Z</time>
      </trkpt>
      <trkpt lat="47.26415" lon="4.963">
        <ele>436.665</ele>
        <time>2012-03-30T09:42:25Z</time>
      </trkpt>
      <trkpt lat="47.26415" lon="4.963">
        <ele>436.665</ele>
        <time>2012-03-30T09:42:36Z</time>
      </trkpt>
      <trkpt lat="47.26415" lon="4.963">
        <ele>437.16</ele>
        <time>2012-03-30T09:42:47Z</time>
      </trkpt>
      <trkpt lat="47.26415" lon="4.963">
        <ele>437.16</ele>
        <time>2012-03-30T09:42:58Z</time>
      </trkpt>
      <trkpt lat="47.26417" lon="4.96302">
        <ele>438.666</ele>
        <time>2012-03-30T09:43:09Z</time>
      </trkpt>
      <trkpt lat="47.26417" lon="4.96302">
        <ele>438.888</ele>
        <time>2012-03-30T09:43:20Z</time>
      </trkpt>
      <trkpt lat="47.26417" lon="4.96302">
        <ele>438.888</ele>
        <time>2012-03-30T09:43:31Z</time>
      </trkpt>
      <trkpt lat="47.26418" lon="4.96302">
        <ele>439.012</ele>
        <time>2012-03-30T09:43:42Z</time>
      </trkpt>
      <trkpt lat="47.26418" lon="4.96302">
        <ele>439.012</ele>
        <time>2012-03-30T09:43:53Z</time>
      </trkpt>
      <trkpt lat="47.26418" lon="4.96302">
        <ele>439.012</ele>
        <time>2012-03-30T09:44:04Z</time>
      </trkpt>
      <trkpt lat="47.26418" lon="4.96302">
        <ele>439.11</ele>
        <time>2012-03-30T09:44:15Z</time>
      </trkpt>
      <trkpt lat="47.26418" lon="4.96302">
        <ele>439.11</ele>
        <time>2012-03-30T09:44:26Z</time>
      </trkpt>
      <trkpt lat="47.26418" lon="4.96302">
        <ele>438.917</ele>
        <time>2012-03-30T09:44:37Z</time>
      </trkpt>
      <trkpt lat="47.26418" lon="4.96302">
        <ele>439.15</ele>
        <time>2012-03-30T09:44:48Z</time>
      </trkpt>
      <trkpt lat="47.2642" lon="4.96302">
        <ele>439.456</ele>
        <time>2012-03-30T09:44:59Z</time>
      </trkpt>
      <trkpt lat="47.26423" lon="4.963">
        <ele>440.614</ele>
        <time>2012-03-30T09:45:10Z</time>
      </trkpt>
      <trkpt lat="47.26435" lon="4.96307">
        <ele>443.917</ele>
        <time>2012-03-30T09:45:21Z</time>
      </trkpt>
      <trkpt lat="47.26452" lon="4.96318">
        <ele>446.875</ele>
        <time>2012-03-30T09:45:32Z</time>
      </trkpt>
      <trkpt lat="47.26467" lon="4.96328">
        <ele>445.871</ele>
        <time>2012-03-30T09:45:43Z</time>
      </trkpt>
      <trkpt lat="47.26478" lon="4.96333">
        <ele>446.954</ele>
        <time>2012-03-30T09:45:54Z</time>
      </trkpt>
      <trkpt lat="47.26495" lon="4.9634">
        <ele>447.577</ele>
        <time>2012-03-30T09:46:05Z</time>
      </trkpt>
      <trkpt lat="47.26512" lon="4.9635">
        <ele>447.238</ele>
        <time>2012-03-30T09:46:16Z</time>
      </trkpt>
      <trkpt lat="47.26528" lon="4.96363">
        <ele>449.127</ele>
        <time>2012-03-30T09:46:27Z</time>
      </trkpt>
      <trkpt lat="47.26545" lon="4.96378">
        <ele>448.492</ele>
        <time>2012-03-30T09:46:38Z</time>
      </trkpt>
      <trkpt lat="47.26552" lon="4.96397">
        <ele>446.166</ele>
        <time>2012-03-30T09:46:49Z</time>
      </trkpt>
      <trkpt lat="47.26573" lon="4.96412">
        <ele>445.348</ele>
        <time>2012-03-30T09:47:00Z</time>
      </trkpt>
      <trkpt lat="47.26592" lon="4.96418">
        <ele>444.764</ele>
        <time>2012-03-30T09:47:11Z</time>
      </trkpt>
      <trkpt lat="47.26607" lon="4.96415">
        <ele>443.556</ele>
        <time>2012-03-30T09:47:22Z</time>
      </trkpt>
      <trkpt lat="47.26623" lon="4.96418">
        <ele>442.476</ele>
        <time>2012-03-30T09:47:33Z</time>
      </trkpt>
      <trkpt lat="47.26633" lon="4.96423">
        <ele>443.193</ele>
        <time>2012-03-30T09:47:44Z</time>
      </trkpt>
      <trkpt lat="47.26653" lon="4.9643">
        <ele>445.491</ele>
        <time>2012-03-30T09:47:55Z</time>
      </trkpt>
      <trkpt lat="47.2667" lon="4.96428">
        <ele>443.679</ele>
        <time>2012-03-30T09:48:06Z</time>
      </trkpt>
      <trkpt lat="47.26683" lon="4.9643">
        <ele>443.947</ele>
        <time>2012-03-30T09:48:17Z</time>
      </trkpt>
      <trkpt lat="47.26693" lon="4.96432">
        <ele>444.918</ele>
        <time>2012-03-30T09:48:28Z</time>
      </trkpt>
      <trkpt lat="47.26705" lon="4.96427">
        <ele>444.519</ele>
        <time>2012-03-30T09:48:39Z</time>
      </trkpt>
      <trkpt lat="47.26718" lon="4.96427">
        <ele>444.862</ele>
        <time>2012-03-30T09:48:50Z</time>
      </trkpt>
      <trkpt lat="47.26735" lon="4.96425">
        <ele>442.074</ele>
        <time>2012-03-30T09:49:01Z</time>
      </trkpt>
      <trkpt lat="47.2676" lon="4.96418">
        <ele>440.458</ele>
        <time>2012-03-30T09:49:12Z</time>
      </trkpt>
      <trkpt lat="47.2678" lon="4.96417">
        <ele>441.701</ele>
        <time>2012-03-30T09:49:23Z</time>
      </trkpt>
      <trkpt lat="47.26802" lon="4.96415">
        <ele>442.533</ele>
        <time>2012-03-30T09:49:34Z</time>
      </trkpt>
      <trkpt lat="47.26817" lon="4.96418">
        <ele>441.391</ele>
        <time>2012-03-30T09:49:45Z</time>
      </trkpt>
      <trkpt lat="47.26838" lon="4.96418">
        <ele>439.563</ele>
        <time>2012-03-30T09:49:56Z</time>
      </trkpt>
      <trkpt lat="47.26858" lon="4.96413">
        <ele>440.035</ele>
        <time>2012-03-30T09:50:07Z</time>
      </trkpt>
      <trkpt lat="47.26877" lon="4.96415">
        <ele>442.555</ele>
        <time>2012-03-30T09:50:18Z</time>
      </trkpt>
      <trkpt lat="47.26893" lon="4.96413">
        <ele>441.683</ele>
        <time>2012-03-30T09:50:29Z</time>
      </trkpt>
      <trkpt lat="47.2691" lon="4.96408">
        <ele>439.538</ele>
        <time>2012-03-30T09:50:40Z</time>
      </trkpt>
      <trkpt lat="47.26927" lon="4.96397">
        <ele>438.475</ele>
        <time>2012-03-30T09:50:51Z</time>
      </trkpt>
      <trkpt lat="47.26942" lon="4.9639">
        <ele>437.644</ele>
        <time>2012-03-30T09:51:02Z</time>
      </trkpt>
      <trkpt lat="47.26948" lon="4.96383">
        <ele>436.422</ele>
        <time>2012-03-30T09:51:13Z</time>
      </trkpt>
      <trkpt lat="47.2696" lon="4.96383">
        <ele>436.477</ele>
        <time>2012-03-30T09:51:24Z</time>
      </trkpt>
      <trkpt lat="47.26973" lon="4.96382">
        <ele>437.339</ele>
        <time>2012-03-30T09:51:35Z</time>
      </trkpt>
      <trkpt lat="47.26995" lon="4.96373">
        <ele>438.428</ele>
        <time>2012-03-30T09:51:46Z</time>
      </trkpt>
      <trkpt lat="47.27008" lon="4.9637">
        <ele>441.218</ele>
        <time>2012-03-30T09:51:57Z</time>
      </trkpt>
      <trkpt lat="47.27025" lon="4.96365">
        <ele>440.976</ele>
        <time>2012-03-30T09:52:08Z</time>
      </trkpt>
      <trkpt lat="47.27045" lon="4.96363">
        <ele>442.185</ele>
        <time>2012-03-30T09:52:19Z</time>
      </trkpt>
      <trkpt lat="47.27067" lon="4.96357">
        <ele>443.228</ele>
        <time>2012-03-30T09:52:30Z</time>
      </trkpt>
      <trkpt lat="47.27082" lon="4.9635">
        <ele>442.425</ele>
        <time>2012-03-30T09:52:41Z</time>
      </trkpt>
      <trkpt lat="47.27092" lon="4.9633">
        <ele>446.088</ele>
        <time>2012-03-30T09:52:52Z</time>
      </trkpt>
      <trkpt lat="47.27098" lon="4.96318">
        <ele>448.666</ele>
        <time>2012-03-30T09:53:03Z</time>
      </trkpt>
      <trkpt lat="47.27105" lon="4.96305">
        <ele>450.399</ele>
        <time>2012-03-30T09:53:14Z</time>
      </trkpt>
      <trkpt lat="47.2712" lon="4.96282">
        <ele>452.36</ele>
        <time>2012-03-30T09:53:25Z</time>
      </trkpt>
      <trkpt lat="47.27128" lon="4.96267">
        <ele>451.103</ele>
        <time>2012-03-30T09:53:36Z</time>
      </trkpt>
      <trkpt lat="47.27138" lon="4.96253">
        <ele>449.314</ele>
        <time>2012-03-30T09:53:47Z</time>
      </trkpt>
      <trkpt lat="47.2715" lon="4.9624">
        <ele>452.294</ele>
        <time>2012-03-30T09:53:58Z</time>
      </trkpt>
      <trkpt lat="47.27155" lon="4.96235">
        <ele>452.127</ele>
        <time>2012-03-30T09:54:09Z</time>
      </trkpt>
      <trkpt lat="47.27157" lon="4.96233">
        <ele>452.421</ele>
        <time>2012-03-30T09:54:20Z</time>
      </trkpt>
      <trkpt lat="47.27157" lon="4.96232">
        <ele>452.21</ele>
        <time>2012-03-30T09:54:31Z</time>
      </trkpt>
      <trkpt lat="47.2716" lon="4.9623">
        <ele>452.348</ele>
        <time>2012-03-30T09:54:42Z</time>
      </trkpt>
      <trkpt lat="47.2716" lon="4.9623">
        <ele>452.176</ele>
        <time>2012-03-30T09:54:53Z</time>
      </trkpt>
      <trkpt lat="47.27165" lon="4.96225">
        <ele>452.756</ele>
        <time>2012-03-30T09:55:04Z</time>
      </trkpt>
      <trkpt lat="47.27173" lon="4.96222">
        <ele>454.185</ele>
        <time>2012-03-30T09:55:15Z</time>
      </trkpt>
      <trkpt lat="47.27193" lon="4.96213">
        <ele>455.913</ele>
        <time>2012-03-30T09:55:26Z</time>
      </trkpt>
      <trkpt lat="47.27205" lon="4.96207">
        <ele>456.12</ele>
        <time>2012-03-30T09:55:37Z</time>
      </trkpt>
      <trkpt lat="47.27215" lon="4.96208">
        <ele>456.247</ele>
        <time>2012-03-30T09:55:48Z</time>
      </trkpt>
      <trkpt lat="47.27223" lon="4.96217">
        <ele>455.487</ele>
        <time>2012-03-30T09:55:59Z</time>
      </trkpt>
      <trkpt lat="47.27225" lon="4.96218">
        <ele>455.506</ele>
        <time>2012-03-30T09:56:10Z</time>
      </trkpt>
      <trkpt lat="47.27222" lon="4.96222">
        <ele>452.728</ele>
        <time>2012-03-30T09:56:21Z</time>
      </trkpt>
      <trkpt lat="47.2722" lon="4.96227">
        <ele>453.789</ele>
        <time>2012-03-30T09:56:32Z</time>
      </trkpt>
      <trkpt lat="47.27218" lon="4.96227">
        <ele>454.566</ele>
        <time>2012-03-30T09:56:43Z</time>
      </trkpt>
      <trkpt lat="47.27215" lon="4.96233">
        <ele>453.698</ele>
        <time>2012-03-30T09:56:54Z</time>
      </trkpt>
      <trkpt lat="47.27212" lon="4.96238">
        <ele>454.956</ele>
        <time>2012-03-30T09:57:05Z</time>
      </trkpt>
      <trkpt lat="47.27218" lon="4.96242">
        <ele>455.427</ele>
        <time>2012-03-30T09:57:16Z</time>
      </trkpt>
      <trkpt lat="47.27218" lon="4.96253">
        <ele>457.09</ele>
        <time>2012-03-30T09:57:27Z</time>
      </trkpt>
      <trkpt lat="47.27205" lon="4.96263">
        <ele>457.278</ele>
        <time>2012-03-30T09:57:38Z</time>
      </trkpt>
      <trkpt lat="47.27193" lon="4.96292">
        <ele>457.192</ele>
        <time>2012-03-30T09:57:49Z</time>
      </trkpt>
      <trkpt lat="47.27198" lon="4.96303">
        <ele>456.048</ele>
        <time>2012-03-30T09:58:00Z</time>
      </trkpt>
      <trkpt lat="47.27195" lon="4.96328">
        <ele>453.75</ele>
        <time>2012-03-30T09:58:11Z</time>
      </trkpt>
      <trkpt lat="47.27197" lon="4.96345">
        <ele>449.997</ele>
        <time>2012-03-30T09:58:22Z</time>
      </trkpt>
      <trkpt lat="47.27195" lon="4.96368">
        <ele>447.355</ele>
        <time>2012-03-30T09:58:33Z</time>
      </trkpt>
      <trkpt lat="47.27183" lon="4.96403">
        <ele>443.406</ele>
        <time>2012-03-30T09:58:44Z</time>
      </trkpt>
      <trkpt lat="47.27177" lon="4.96422">
        <ele>441.684</ele>
        <time>2012-03-30T09:58:55Z</time>
      </trkpt>
      <trkpt lat="47.2717" lon="4.96433">
        <ele>439.501</ele>
        <time>2012-03-30T09:59:06Z</time>
      </trkpt>
      <trkpt lat="47.27167" lon="4.96455">
        <ele>438.164</ele>
        <time>2012-03-30T09:59:17Z</time>
      </trkpt>
      <trkpt lat="47.27175" lon="4.96467">
        <ele>434.869</ele>
        <time>2012-03-30T09:59:28Z</time>
      </trkpt>
      <trkpt lat="47.27167" lon="4.96482">
        <ele>433.576</ele>
        <time>2012-03-30T09:59:39Z</time>
      </trkpt>
      <trkpt lat="47.27145" lon="4.96498">
        <ele>432.053</ele>
        <time>2012-03-30T09:59:50Z</time>
      </trkpt>
      <trkpt lat="47.27127" lon="4.96507">
        <ele>429.296</ele>
        <time>2012-03-30T10:00:01Z</time>
      </trkpt>
      <trkpt lat="47.27108" lon="4.96515">
        <ele>428.043</ele>
        <time>2012-03-30T10:00:12Z</time>
      </trkpt>
      <trkpt lat="47.27097" lon="4.96527">
        <ele>429.314</ele>
        <time>2012-03-30T10:00:23Z</time>
      </trkpt>
      <trkpt lat="47.27075" lon="4.96543">
        <ele>432.236</ele>
        <time>2012-03-30T10:00:34Z</time>
      </trkpt>
      <trkpt lat="47.27062" lon="4.96567">
        <ele>432.093</ele>
        <time>2012-03-30T10:00:45Z</time>
      </trkpt>
      <trkpt lat="47.2706" lon="4.96585">
        <ele>432.52</ele>
        <time>2012-03-30T10:00:56Z</time>
      </trkpt>
      <trkpt lat="47.27053" lon="4.96602">
        <ele>433.916</ele>
        <time>2012-03-30T10:01:07Z</time>
      </trkpt>
      <trkpt lat="47.27043" lon="4.96633">
        <ele>429.424</ele>
        <time>2012-03-30T10:01:18Z</time>
      </trkpt>
      <trkpt lat="47.27032" lon="4.9665">
        <ele>430.57</ele>
        <time>2012-03-30T10:01:29Z</time>
      </trkpt>
      <trkpt lat="47.27023" lon="4.96665">
        <ele>432.771</ele>
        <time>2012-03-30T10:01:40Z</time>
      </trkpt>
      <trkpt lat="47.27007" lon="4.96685">
        <ele>432.499</ele>
        <time>2012-03-30T10:01:51Z</time>
      </trkpt>
      <trkpt lat="47.27005" lon="4.96702">
        <ele>433.951</ele>
        <time>2012-03-30T10:02:02Z</time>
      </trkpt>
      <trkpt lat="47.26997" lon="4.96715">
        <ele>430.917</ele>
        <time>2012-03-30T10:02:13Z</time>
      </trkpt>
      <trkpt lat="47.26995" lon="4.96732">
        <ele>430.693</ele>
        <time>2012-03-30T10:02:24Z</time>
      </trkpt>
      <trkpt lat="47.2698" lon="4.96742">
        <ele>429.243</ele>
        <time>2012-03-30T10:02:35Z</time>
      </trkpt>
      <trkpt lat="47.26963" lon="4.96758">
        <ele>427.658</ele>
        <time>2012-03-30T10:02:46Z</time>
      </trkpt>
      <trkpt lat="47.26955" lon="4.96775">
        <ele>428.295</ele>
        <time>2012-03-30T10:02:57Z</time>
      </trkpt>
      <trkpt lat="47.26943" lon="4.96795">
        <ele>426.675</ele>
        <time>2012-03-30T10:03:08Z</time>
      </trkpt>
      <trkpt lat="47.2693" lon="4.96812">
        <ele>419.013</ele>
        <time>2012-03-30T10:03:19Z</time>
      </trkpt>
      <trkpt lat="47.26932" lon="4.96823">
        <ele>417.037</ele>
        <time>2012-03-30T10:03:30Z</time>
      </trkpt>
      <trkpt lat="47.2692" lon="4.9685">
        <ele>415.699</ele>
        <time>2012-03-30T10:03:41Z</time>
      </trkpt>
      <trkpt lat="47.26912" lon="4.96863">
        <ele>409.963</ele>
        <time>2012-03-30T10:03:52Z</time>
      </trkpt>
      <trkpt lat="47.269" lon="4.96877">
        <ele>411.832</ele>
        <time>2012-03-30T10:04:03Z</time>
      </trkpt>
      <trkpt lat="47.26897" lon="4.96885">
        <ele>409.657</ele>
        <time>2012-03-30T10:04:14Z</time>
      </trkpt>
      <trkpt lat="47.26885" lon="4.96897">
        <ele>410.755</ele>
        <time>2012-03-30T10:04:25Z</time>
      </trkpt>
      <trkpt lat="47.2688" lon="4.96912">
        <ele>409.041</ele>
        <time>2012-03-30T10:04:36Z</time>
      </trkpt>
      <trkpt lat="47.26873" lon="4.96938">
        <ele>404.293</ele>
        <time>2012-03-30T10:04:47Z</time>
      </trkpt>
      <trkpt lat="47.26873" lon="4.96947">
        <ele>400.496</ele>
        <time>2012-03-30T10:04:58Z</time>
      </trkpt>
      <trkpt lat="47.26862" lon="4.9697">
        <ele>398.357</ele>
        <time>2012-03-30T10:05:09Z</time>
      </trkpt>
      <trkpt lat="47.26853" lon="4.96988">
        <ele>398.953</ele>
        <time>2012-03-30T10:05:20Z</time>
      </trkpt>
      <trkpt lat="47.26853" lon="4.97007">
        <ele>396.672</ele>
        <time>2012-03-30T10:05:31Z</time>
      </trkpt>
      <trkpt lat="47.26838" lon="4.9703">
        <ele>393.444</ele>
        <time>2012-03-30T10:05:42Z</time>
      </trkpt>
      <trkpt lat="47.26832" lon="4.97063">
        <ele>394.423</ele>
        <time>2012-03-30T10:05:53Z</time>
      </trkpt>
      <trkpt lat="47.26835" lon="4.97078">
        <ele>389.428</ele>
        <time>2012-03-30T10:06:04Z</time>
      </trkpt>
      <trkpt lat="47.26835" lon="4.97095">
        <ele>389.392</ele>
        <time>2012-03-30T10:06:15Z</time>
      </trkpt>
      <trkpt lat="47.26832" lon="4.97113">
        <ele>385.809</ele>
        <time>2012-03-30T10:06:26Z</time>
      </trkpt>
      <trkpt lat="47.26827" lon="4.9714">
        <ele>385.663</ele>
        <time>2012-03-30T10:06:37Z</time>
      </trkpt>
      <trkpt lat="47.26822" lon="4.97162">
        <ele>383.002</ele>
        <time>2012-03-30T10:06:48Z</time>
      </trkpt>
      <trkpt lat="47.26822" lon="4.97195">
        <ele>385.122</ele>
        <time>2012-03-30T10:06:59Z</time>
      </trkpt>
      <trkpt lat="47.26822" lon="4.97232">
        <ele>380.115</ele>
        <time>2012-03-30T10:07:10Z</time>
      </trkpt>
      <trkpt lat="47.26818" lon="4.97255">
        <ele>378.257</ele>
        <time>2012-03-30T10:07:21Z</time>
      </trkpt>
      <trkpt lat="47.26818" lon="4.97282">
        <ele>375.166</ele>
        <time>2012-03-30T10:07:32Z</time>
      </trkpt>
      <trkpt lat="47.26808" lon="4.97317">
        <ele>368.673</ele>
        <time>2012-03-30T10:07:43Z</time>
      </trkpt>
      <trkpt lat="47.26798" lon="4.9735">
        <ele>367.226</ele>
        <time>2012-03-30T10:07:54Z</time>
      </trkpt>
      <trkpt lat="47.26788" lon="4.97393">
        <ele>366.601</ele>
        <time>2012-03-30T10:08:05Z</time>
      </trkpt>
      <trkpt lat="47.26778" lon="4.97425">
        <ele>362.289</ele>
        <time>2012-03-30T10:08:16Z</time>
      </trkpt>
      <trkpt lat="47.26777" lon="4.97465">
        <ele>359.001</ele>
        <time>2012-03-30T10:08:27Z</time>
      </trkpt>
      <trkpt lat="47.26773" lon="4.97497">
        <ele>357.188</ele>
        <time>2012-03-30T10:08:38Z</time>
      </trkpt>
      <trkpt lat="47.26788" lon="4.97522">
        <ele>355.166</ele>
        <time>2012-03-30T10:08:49Z</time>
      </trkpt>
      <trkpt lat="47.2679" lon="4.97547">
        <ele>354.306</ele>
        <time>2012-03-30T10:09:00Z</time>
      </trkpt>
      <trkpt lat="47.26798" lon="4.97568">
        <ele>352.528</ele>
        <time>2012-03-30T10:09:11Z</time>
      </trkpt>
      <trkpt lat="47.26812" lon="4.97588">
        <ele>349.29</ele>
        <time>2012-03-30T10:09:22Z</time>
      </trkpt>
      <trkpt lat="47.26827" lon="4.9761">
        <ele>346.784</ele>
        <time>2012-03-30T10:09:33Z</time>
      </trkpt>
      <trkpt lat="47.26837" lon="4.9763">
        <ele>344.273</ele>
        <time>2012-03-30T10:09:44Z</time>
      </trkpt>
      <trkpt lat="47.26838" lon="4.97653">
        <ele>341.762</ele>
        <time>2012-03-30T10:09:55Z</time>
      </trkpt>
      <trkpt lat="47.2684" lon="4.97673">
        <ele>339.701</ele>
        <time>2012-03-30T10:10:06Z</time>
      </trkpt>
      <trkpt lat="47.26848" lon="4.97695">
        <ele>334.682</ele>
        <time>2012-03-30T10:10:17Z</time>
      </trkpt>
      <trkpt lat="47.26858" lon="4.97717">
        <ele>332.103</ele>
        <time>2012-03-30T10:10:28Z</time>
      </trkpt>
      <trkpt lat="47.26867" lon="4.97738">
        <ele>335.63</ele>
        <time>2012-03-30T10:10:39Z</time>
      </trkpt>
      <trkpt lat="47.26878" lon="4.97758">
        <ele>334.578</ele>
        <time>2012-03-30T10:10:50Z</time>
      </trkpt>
      <trkpt lat="47.26887" lon="4.97778">
        <ele>331.799</ele>
        <time>2012-03-30T10:11:01Z</time>
      </trkpt>
      <trkpt lat="47.26892" lon="4.97798">
        <ele>331.11</ele>
        <time>2012-03-30T10:11:12Z</time>
      </trkpt>
      <trkpt lat="47.26895" lon="4.97825">
        <ele>328.285</ele>
        <time>2012-03-30T10:11:23Z</time>
      </trkpt>
      <trkpt lat="47.26897" lon="4.97848">
        <ele>328.628</ele>
        <time>2012-03-30T10:11:34Z</time>
      </trkpt>
      <trkpt lat="47.26897" lon="4.97873">
        <ele>329.052</ele>
        <time>2012-03-30T10:11:45Z</time>
      </trkpt>
      <trkpt lat="47.26898" lon="4.979">
        <ele>327.995</ele>
        <time>2012-03-30T10:11:56Z</time>
      </trkpt>
      <trkpt lat="47.26897" lon="4.97927">
        <ele>326.61</ele>
        <time>2012-03-30T10:12:07Z</time>
      </trkpt>
      <trkpt lat="47.26897" lon="4.97948">
        <ele>324.407</ele>
        <time>2012-03-30T10:12:18Z</time>
      </trkpt>
      <trkpt lat="47.26893" lon="4.97973">
        <ele>322.927</ele>
        <time>2012-03-30T10:12:29Z</time>
      </trkpt>
      <trkpt lat="47.26892" lon="4.97995">
        <ele>322.199</ele>
        <time>2012-03-30T10:12:40Z</time>
      </trkpt>
      <trkpt lat="47.26883" lon="4.9802">
        <ele>320.238</ele>
        <time>2012-03-30T10:12:51Z</time>
      </trkpt>
      <trkpt lat="47.2688" lon="4.98047">
        <ele>318.78</ele>
        <time>2012-03-30T10:13:02Z</time>
      </trkpt>
      <trkpt lat="47.26875" lon="4.98067">
        <ele>320.722</ele>
        <time>2012-03-30T10:13:13Z</time>
      </trkpt>
      <trkpt lat="47.26865" lon="4.98093">
        <ele>318.963</ele>
        <time>2012-03-30T10:13:24Z</time>
      </trkpt>
      <trkpt lat="47.2686" lon="4.98118">
        <ele>318.424</ele>
        <time>2012-03-30T10:13:35Z</time>
      </trkpt>
      <trkpt lat="47.26855" lon="4.9814">
        <ele>316.931</ele>
        <time>2012-03-30T10:13:46Z</time>
      </trkpt>
      <trkpt lat="47.26848" lon="4.98165">
        <ele>314.839</ele>
        <time>2012-03-30T10:13:57Z</time>
      </trkpt>
      <trkpt lat="47.26845" lon="4.98187">
        <ele>315.528</ele>
        <time>2012-03-30T10:14:08Z</time>
      </trkpt>
      <trkpt lat="47.26842" lon="4.98208">
        <ele>317.319</ele>
        <time>2012-03-30T10:14:19Z</time>
      </trkpt>
      <trkpt lat="47.26837" lon="4.98228">
        <ele>317.4</ele>
        <time>2012-03-30T10:14:30Z</time>
      </trkpt>
      <trkpt lat="47.26833" lon="4.98253">
        <ele>316.385</ele>
        <time>2012-03-30T10:14:41Z</time>
      </trkpt>
      <trkpt lat="47.26832" lon="4.98278">
        <ele>314.233</ele>
        <time>2012-03-30T10:14:52Z</time>
      </trkpt>
      <trkpt lat="47.26828" lon="4.98303">
        <ele>313.579</ele>
        <time>2012-03-30T10:15:03Z</time>
      </trkpt>
      <trkpt lat="47.26827" lon="4.98328">
        <ele>311.866</ele>
        <time>2012-03-30T10:15:14Z</time>
      </trkpt>
      <trkpt lat="47.26823" lon="4.98353">
        <ele>310.625</ele>
        <time>2012-03-30T10:15:25Z</time>
      </trkpt>
      <trkpt lat="47.2682" lon="4.98373">
        <ele>310.982</ele>
        <time>2012-03-30T10:15:36Z</time>
      </trkpt>
      <trkpt lat="47.26818" lon="4.98393">
        <ele>312.477</ele>
        <time>2012-03-30T10:15:47Z</time>
      </trkpt>
      <trkpt lat="47.26813" lon="4.98417">
        <ele>313.585</ele>
        <time>2012-03-30T10:15:58Z</time>
      </trkpt>
      <trkpt lat="47.26808" lon="4.9844">
        <ele>312.389</ele>
        <time>2012-03-30T10:16:09Z</time>
      </trkpt>
      <trkpt lat="47.26795" lon="4.98443">
        <ele>312.128</ele>
        <time>2012-03-30T10:16:20Z</time>
      </trkpt>
      <trkpt lat="47.26783" lon="4.98437">
        <ele>313.726</ele>
        <time>2012-03-30T10:16:31Z</time>
      </trkpt>
      <trkpt lat="47.26772" lon="4.98437">
        <ele>311.313</ele>
        <time>2012-03-30T10:16:42Z</time>
      </trkpt>
      <trkpt lat="47.26758" lon="4.9843">
        <ele>311.261</ele>
        <time>2012-03-30T10:16:53Z</time>
      </trkpt>
      <trkpt lat="47.26743" lon="4.98423">
        <ele>307.978</ele>
        <time>2012-03-30T10:17:04Z</time>
      </trkpt>
      <trkpt lat="47.26728" lon="4.98413">
        <ele>308.046</ele>
        <time>2012-03-30T10:17:15Z</time>
      </trkpt>
      <trkpt lat="47.26712" lon="4.98403">
        <ele>305.332</ele>
        <time>2012-03-30T10:17:26Z</time>
      </trkpt>
      <trkpt lat="47.26697" lon="4.98393">
        <ele>304.771</ele>
        <time>2012-03-30T10:17:37Z</time>
      </trkpt>
      <trkpt lat="47.26682" lon="4.98387">
        <ele>304.985</ele>
        <time>2012-03-30T10:17:48Z</time>
      </trkpt>
      <trkpt lat="47.26667" lon="4.98388">
        <ele>303.473</ele>
        <time>2012-03-30T10:17:59Z</time>
      </trkpt>
      <trkpt lat="47.26652" lon="4.98383">
        <ele>302.324</ele>
        <time>2012-03-30T10:18:10Z</time>
      </trkpt>
      <trkpt lat="47.26643" lon="4.9838">
        <ele>300.934</ele>
        <time>2012-03-30T10:18:21Z</time>
      </trkpt>
      <trkpt lat="47.26643" lon="4.9838">
        <ele>300.895</ele>
        <time>2012-03-30T10:18:32Z</time>
      </trkpt>
    </trkseg>
  </trk>
</gpx>